Brockton, Massachusetts
Current Conditions -  °F | °C
As of 9:53 PM on Saturday 22 Nov 2014 (Local Time) from KOWD Reporting Station
Clear Clear  
Wind Chill: 37°   Ceiling: Unl
Heat Index: 42°   Visibility: 10mi
Dew Point: 20°   Wind: 9mph
Humidity: 41%   Direction: 220°SW
Pressure: 30.1"   Gusts: NA
Location:  42.08°N, 71.02°W
Report Text: KOWD 230253Z AUTO 22008KT 10SM CLR 06/M07 A3010 RMK AO2 SLP192 T00561067 56014
Loading
Personal Weather Stations






























Interactive Weather Map New forecast layout! Learn more

10-Day Weather Forecast

Advertisements
Track Severe Weather on mobile